createdAt,value
2022-12-25T00:02:01.357Z,14.02
2022-12-25T00:04:28.017Z,14.23
2022-12-25T00:06:54.451Z,13.32
2022-12-25T00:09:20.929Z,13.93
2022-12-25T00:11:47.431Z,14.95
2022-12-25T00:14:13.935Z,14.88
2022-12-25T00:16:40.388Z,15.15
2022-12-25T00:19:06.931Z,15.10
2022-12-25T00:21:33.355Z,14.23
2022-12-25T00:23:59.841Z,14.90
2022-12-25T00:26:27.729Z,15.15
2022-12-25T00:28:55.878Z,15.07
2022-12-25T00:31:23.318Z,15.35
2022-12-25T00:33:51.276Z,14.80
2022-12-25T00:36:20.615Z,14.77
2022-12-25T00:38:47.090Z,15.07
2022-12-25T00:41:19.558Z,13.85
2022-12-25T00:43:46.048Z,14.40
2022-12-25T00:46:13.166Z,14.03
2022-12-25T00:48:40.371Z,14.20
2022-12-25T00:51:10.498Z,15.05
2022-12-25T00:53:36.917Z,13.13
2022-12-25T00:56:07.262Z,13.80
2022-12-25T00:58:34.742Z,13.63
2022-12-25T01:01:01.982Z,13.23
2022-12-25T01:03:29.155Z,13.35
2022-12-25T01:05:58.505Z,13.07
2022-12-25T01:08:25.959Z,12.82
2022-12-25T01:10:57.332Z,12.50
2022-12-25T01:13:24.290Z,13.02
2022-12-25T01:15:51.109Z,12.50
2022-12-25T01:18:22.252Z,12.82
2022-12-25T01:20:48.742Z,12.35
2022-12-25T01:23:15.783Z,12.73
2022-12-25T01:25:42.288Z,12.90
2022-12-25T01:28:09.108Z,12.38
2022-12-25T01:30:35.613Z,12.50
2022-12-25T01:33:02.085Z,12.60
2022-12-25T01:35:28.530Z,13.20
2022-12-25T01:37:54.968Z,12.73
2022-12-25T01:40:21.395Z,12.27
2022-12-25T01:42:47.896Z,12.63
2022-12-25T01:45:23.522Z,12.30
2022-12-25T01:47:50.391Z,13.00
2022-12-25T01:50:17.439Z,13.40
2022-12-25T01:52:44.831Z,12.70
2022-12-25T01:55:11.886Z,13.70
2022-12-25T01:57:39.619Z,14.70
2022-12-25T02:00:08.433Z,14.87
2022-12-25T02:02:36.218Z,14.45
2022-12-25T02:05:12.351Z,14.13
2022-12-25T02:07:39.801Z,13.05
2022-12-25T02:10:07.738Z,13.63
2022-12-25T02:12:35.454Z,14.40
2022-12-25T02:15:17.864Z,14.90
2022-12-25T02:17:59.455Z,14.40
2022-12-25T02:20:39.709Z,14.30
2022-12-25T02:23:33.658Z,14.65
2022-12-25T02:26:24.768Z,13.70
2022-12-25T02:29:12.125Z,14.00
2022-12-25T02:31:45.977Z,13.75
2022-12-25T02:34:31.785Z,13.38
2022-12-25T02:37:04.207Z,12.88
2022-12-25T02:39:57.425Z,13.33
2022-12-25T02:42:41.755Z,13.32
2022-12-25T02:45:08.593Z,12.43
2022-12-25T02:47:36.914Z,12.20
2022-12-25T02:50:06.298Z,13.32
2022-12-25T02:52:32.789Z,12.47
2022-12-25T02:55:11.368Z,11.70
2022-12-25T02:57:44.040Z,11.48
2022-12-25T03:00:12.009Z,11.65
2022-12-25T03:02:42.125Z,13.00
2022-12-25T03:05:13.535Z,12.00
2022-12-25T03:07:43.885Z,10.30
2022-12-25T03:10:14.192Z,10.95
2022-12-25T03:12:51.575Z,10.75
2022-12-25T03:15:19.693Z,9.55
2022-12-25T03:17:46.296Z,9.40
2022-12-25T03:20:12.962Z,9.80
2022-12-25T03:22:42.878Z,9.75
2022-12-25T03:25:09.525Z,9.32
2022-12-25T03:27:37.527Z,8.60
2022-12-25T03:30:04.538Z,8.87
2022-12-25T03:33:18.070Z,9.48
2022-12-25T03:36:05.117Z,8.23
2022-12-25T03:38:31.554Z,8.73
2022-12-25T03:41:20.880Z,8.85
2022-12-25T03:44:03.010Z,7.97
2022-12-25T03:46:34.615Z,7.80
2022-12-25T03:49:10.210Z,7.82
2022-12-25T03:51:39.615Z,7.65
2022-12-25T03:54:09.953Z,7.68
2022-12-25T03:56:38.159Z,7.90
2022-12-25T03:59:04.618Z,7.38
2022-12-25T04:01:31.371Z,7.53
2022-12-25T04:03:58.056Z,6.55
2022-12-25T04:06:24.567Z,6.68
2022-12-25T04:08:51.154Z,7.13
2022-12-25T04:11:18.410Z,7.07
2022-12-25T04:13:45.035Z,6.72
2022-12-25T04:16:11.471Z,7.05
2022-12-25T04:18:38.098Z,6.95
2022-12-25T04:21:04.605Z,6.63
2022-12-25T04:23:31.212Z,7.05
2022-12-25T04:25:58.701Z,6.38
2022-12-25T04:28:25.299Z,6.43
2022-12-25T04:30:51.775Z,6.70
2022-12-25T04:33:18.299Z,6.23
2022-12-25T04:35:48.765Z,6.75
2022-12-25T04:38:15.316Z,7.05
2022-12-25T04:40:41.724Z,6.97
2022-12-25T04:43:08.125Z,6.95
2022-12-25T04:45:34.515Z,6.53
2022-12-25T04:48:01.017Z,6.45
2022-12-25T04:50:27.615Z,6.50
2022-12-25T04:52:54.111Z,6.00
2022-12-25T04:55:20.680Z,6.13
2022-12-25T04:57:47.277Z,6.30
2022-12-25T05:00:14.069Z,5.97
2022-12-25T05:02:40.880Z,6.40
2022-12-25T05:05:07.790Z,6.63
2022-12-25T05:07:34.232Z,5.90
2022-12-25T05:10:00.752Z,5.83
2022-12-25T05:12:27.222Z,5.88
2022-12-25T05:14:53.634Z,5.65
2022-12-25T05:17:20.176Z,5.20
2022-12-25T05:19:46.749Z,5.53
2022-12-25T05:22:13.234Z,5.50
2022-12-25T05:24:39.930Z,5.22
2022-12-25T05:27:06.474Z,5.38
2022-12-25T05:29:32.900Z,4.95
2022-12-25T05:31:59.412Z,5.32
2022-12-25T05:34:25.978Z,4.90
2022-12-25T05:36:52.441Z,5.10
2022-12-25T05:39:19.075Z,5.18
2022-12-25T05:41:45.648Z,5.30
2022-12-25T05:44:12.342Z,5.35
2022-12-25T05:46:38.847Z,4.30
2022-12-25T05:49:05.349Z,4.72
2022-12-25T05:51:32.374Z,4.78
2022-12-25T05:53:59.120Z,4.82
2022-12-25T05:56:25.638Z,4.40
2022-12-25T05:58:52.310Z,4.40
2022-12-25T06:01:25.900Z,4.57
2022-12-25T06:03:53.036Z,4.40
2022-12-25T06:06:19.664Z,4.88
2022-12-25T06:08:46.892Z,4.50
2022-12-25T06:11:14.923Z,4.30
2022-12-25T06:13:42.029Z,4.93
2022-12-25T06:16:11.321Z,4.20
2022-12-25T06:18:40.198Z,4.20
2022-12-25T06:21:11.950Z,3.92
2022-12-25T06:23:39.259Z,4.20
2022-12-25T06:26:08.059Z,4.20
2022-12-25T06:28:34.768Z,3.60
2022-12-25T06:31:23.528Z,3.97
2022-12-25T06:33:50.464Z,4.03
2022-12-25T06:36:20.373Z,4.10
2022-12-25T06:38:47.119Z,4.10
2022-12-25T06:41:17.023Z,4.13
2022-12-25T06:43:43.825Z,4.20
2022-12-25T06:46:12.316Z,4.13
2022-12-25T06:48:40.540Z,4.50
2022-12-25T06:51:07.875Z,4.03
2022-12-25T06:53:39.670Z,4.25
2022-12-25T06:56:09.742Z,4.70
2022-12-25T06:58:36.228Z,4.32
2022-12-25T07:01:10.254Z,4.70
2022-12-25T07:03:36.757Z,4.50
2022-12-25T07:06:03.307Z,4.90
2022-12-25T07:08:29.805Z,4.90
2022-12-25T07:10:56.284Z,4.90
2022-12-25T07:13:22.738Z,4.90
2022-12-25T07:15:56.003Z,5.22
2022-12-25T07:18:22.568Z,5.20
2022-12-25T07:20:49.108Z,5.70
2022-12-25T07:23:15.772Z,5.90
2022-12-25T07:25:42.231Z,5.47
2022-12-25T07:28:08.821Z,5.80
2022-12-25T07:30:35.290Z,5.90
2022-12-25T07:33:01.873Z,5.55
2022-12-25T07:35:28.386Z,5.90
2022-12-25T07:37:54.870Z,6.20
2022-12-25T07:40:21.346Z,6.20
2022-12-25T07:42:47.883Z,5.57
2022-12-25T07:45:14.397Z,5.57
2022-12-25T07:47:40.845Z,5.80
2022-12-25T07:50:07.808Z,5.97
2022-12-25T07:52:39.499Z,5.82
2022-12-25T07:55:10.415Z,6.10
2022-12-25T07:57:37.028Z,5.70
2022-12-25T08:00:04.852Z,5.72
2022-12-25T08:02:31.509Z,5.37
2022-12-25T08:04:58.419Z,5.95
2022-12-25T08:07:24.879Z,5.95
2022-12-25T08:09:51.335Z,6.07
2022-12-25T08:12:17.904Z,5.80
2022-12-25T08:14:44.506Z,5.77
2022-12-25T08:17:11.118Z,6.20
2022-12-25T08:19:37.706Z,5.70
2022-12-25T08:22:04.233Z,5.32
2022-12-25T08:24:30.772Z,6.20
2022-12-25T08:26:57.277Z,5.57
2022-12-25T08:29:23.807Z,5.43
2022-12-25T08:31:50.376Z,5.60
2022-12-25T08:34:16.896Z,5.07
2022-12-25T08:36:43.322Z,5.13
2022-12-25T08:39:10.024Z,5.60
2022-12-25T08:41:36.626Z,5.72
2022-12-25T08:44:04.510Z,5.70
2022-12-25T08:46:31.167Z,5.63
2022-12-25T08:48:58.005Z,5.38
2022-12-25T08:51:26.035Z,5.70
2022-12-25T08:53:53.511Z,5.57
2022-12-25T08:56:20.399Z,5.90
2022-12-25T08:58:47.227Z,6.50
2022-12-25T09:01:13.958Z,6.32
2022-12-25T09:03:40.535Z,6.90
2022-12-25T09:06:09.817Z,6.60
2022-12-25T09:08:41.093Z,6.85
2022-12-25T09:11:14.823Z,7.15
2022-12-25T09:13:41.827Z,7.15
2022-12-25T09:16:10.911Z,7.77
2022-12-25T09:18:37.530Z,7.90
2022-12-25T09:21:07.897Z,7.68
2022-12-25T09:23:34.652Z,7.70
2022-12-25T09:26:02.653Z,7.75
2022-12-25T09:28:29.358Z,7.33
2022-12-25T09:30:56.070Z,8.05
2022-12-25T09:33:22.862Z,8.63
2022-12-25T09:35:54.604Z,8.60
2022-12-25T09:38:21.299Z,9.48
2022-12-25T09:40:49.738Z,9.43
2022-12-25T09:43:18.917Z,9.35
2022-12-25T09:45:45.638Z,8.45
2022-12-25T09:48:16.410Z,8.73
2022-12-25T09:51:04.251Z,7.90
2022-12-25T09:53:38.567Z,8.23
2022-12-25T09:56:17.412Z,8.55
2022-12-25T09:58:44.179Z,9.13
2022-12-25T10:01:44.782Z,8.25
2022-12-25T10:04:29.687Z,9.25
2022-12-25T10:07:21.533Z,7.53
2022-12-25T10:10:25.784Z,7.85
2022-12-25T10:13:15.225Z,9.77
2022-12-25T10:16:11.039Z,9.20
2022-12-25T10:18:42.360Z,9.55
2022-12-25T10:21:13.436Z,9.70
2022-12-25T10:23:48.980Z,10.20
2022-12-25T10:26:21.508Z,9.95
2022-12-25T10:29:14.299Z,9.77
2022-12-25T10:31:41.684Z,10.32
2022-12-25T10:34:10.854Z,9.97
2022-12-25T10:36:37.704Z,10.40
2022-12-25T10:39:04.209Z,10.40
2022-12-25T10:42:09.084Z,11.63
2022-12-25T10:44:36.040Z,11.15
2022-12-25T10:47:04.712Z,11.17
2022-12-25T10:49:39.103Z,12.68
2022-12-25T10:52:24.924Z,12.75
2022-12-25T10:54:52.264Z,13.77
2022-12-25T10:57:22.309Z,20.55
2022-12-25T10:59:51.550Z,18.57
2022-12-25T11:02:30.466Z,11.07
2022-12-25T11:05:05.421Z,10.88
2022-12-25T11:07:34.924Z,12.32
2022-12-25T11:10:05.936Z,13.25
2022-12-25T11:12:38.037Z,12.80
2022-12-25T11:15:33.668Z,14.38
2022-12-25T11:18:00.429Z,13.57
2022-12-25T11:20:26.961Z,13.82
2022-12-25T11:22:53.466Z,13.10
2022-12-25T11:25:25.331Z,12.93
2022-12-25T11:28:00.139Z,13.18
2022-12-25T11:30:29.860Z,12.63
2022-12-25T11:33:00.894Z,13.77
2022-12-25T11:35:31.143Z,12.07
2022-12-25T11:37:57.717Z,26.87
2022-12-25T11:40:41.029Z,13.75
2022-12-25T11:43:26.878Z,14.50
2022-12-25T11:46:18.130Z,16.35
2022-12-25T11:48:51.743Z,16.08
2022-12-25T11:51:20.074Z,15.87
2022-12-25T11:53:54.072Z,14.05
2022-12-25T11:56:30.282Z,14.30
2022-12-25T11:59:16.376Z,14.07
2022-12-25T12:01:50.672Z,13.30
2022-12-25T12:04:42.646Z,13.27
2022-12-25T12:07:21.823Z,13.35
2022-12-25T12:09:58.215Z,14.07
2022-12-25T12:12:49.550Z,17.45
2022-12-25T12:15:18.983Z,15.52
2022-12-25T12:17:45.707Z,15.60
2022-12-25T12:20:26.560Z,15.43
2022-12-25T12:22:53.406Z,17.85
2022-12-25T12:25:22.616Z,14.95
2022-12-25T12:28:05.240Z,18.23
2022-12-25T12:30:35.564Z,21.20
2022-12-25T12:33:05.100Z,17.17
2022-12-25T12:35:38.787Z,15.20
2022-12-25T12:38:20.940Z,18.17
2022-12-25T12:41:00.981Z,17.65
2022-12-25T12:43:36.010Z,18.90
2022-12-25T12:46:31.035Z,19.42
2022-12-25T12:49:33.507Z,21.05
2022-12-25T12:52:25.889Z,21.10
2022-12-25T12:55:03.035Z,17.48
2022-12-25T12:57:32.266Z,19.03
2022-12-25T13:00:04.786Z,24.05
2022-12-25T13:02:38.288Z,24.77
2022-12-25T13:05:36.335Z,19.02
2022-12-25T13:08:44.825Z,24.77
2022-12-25T13:11:24.553Z,22.93
2022-12-25T13:13:54.028Z,20.00
2022-12-25T13:16:26.813Z,20.55
2022-12-25T13:18:55.334Z,24.40
2022-12-25T13:21:30.020Z,19.05
2022-12-25T13:24:02.258Z,24.97
2022-12-25T13:26:29.625Z,20.50
2022-12-25T13:28:56.388Z,17.88
2022-12-25T13:31:29.459Z,20.75
2022-12-25T13:34:00.761Z,21.33
2022-12-25T13:36:29.673Z,21.57
2022-12-25T13:38:58.676Z,22.95
2022-12-25T13:41:30.638Z,23.85
2022-12-25T13:43:58.810Z,20.45
2022-12-25T13:46:27.270Z,19.60
2022-12-25T13:49:01.297Z,19.97
2022-12-25T13:51:28.412Z,21.58
2022-12-25T13:54:07.177Z,19.17
2022-12-25T13:56:34.562Z,20.80
2022-12-25T13:59:01.252Z,21.58
2022-12-25T14:01:28.973Z,19.03
2022-12-25T14:03:55.887Z,17.63
2022-12-25T14:06:28.763Z,18.75
2022-12-25T14:08:57.666Z,17.58
2022-12-25T14:11:27.409Z,17.67
2022-12-25T14:14:00.419Z,22.03
2022-12-25T14:16:28.951Z,21.50
2022-12-25T14:19:01.276Z,21.40
2022-12-25T14:21:37.891Z,22.23
2022-12-25T14:24:12.573Z,23.00
2022-12-25T14:26:39.185Z,27.37
2022-12-25T14:29:05.588Z,26.08
2022-12-25T14:31:33.547Z,26.98
2022-12-25T14:34:02.071Z,33.97
2022-12-25T14:36:30.783Z,27.73
2022-12-25T14:39:04.247Z,28.87
2022-12-25T14:41:40.288Z,28.25
2022-12-25T14:44:37.005Z,26.17
2022-12-25T14:47:18.189Z,23.35
2022-12-25T14:49:45.133Z,21.35
2022-12-25T14:52:42.107Z,20.90
2022-12-25T14:55:25.029Z,22.75
2022-12-25T14:57:55.276Z,24.20
2022-12-25T15:00:22.232Z,23.05
2022-12-25T15:02:53.212Z,20.55
2022-12-25T15:05:23.828Z,25.30
2022-12-25T15:08:18.223Z,30.65
2022-12-25T15:11:02.248Z,25.00
2022-12-25T15:13:31.030Z,27.10
2022-12-25T15:15:59.330Z,28.00
2022-12-25T15:18:30.879Z,28.07
2022-12-25T15:20:57.739Z,24.42
2022-12-25T15:23:24.349Z,24.90
2022-12-25T15:25:51.837Z,26.15
2022-12-25T15:28:18.547Z,24.83
2022-12-25T15:30:45.113Z,24.20
2022-12-25T15:33:17.042Z,27.33
2022-12-25T15:35:44.242Z,26.98
2022-12-25T15:38:12.516Z,25.88
2022-12-25T15:40:40.024Z,28.02
2022-12-25T15:43:14.366Z,26.87
2022-12-25T15:45:47.414Z,29.33
2022-12-25T15:48:13.871Z,36.85
2022-12-25T15:50:40.293Z,30.65
2022-12-25T15:53:06.731Z,28.65
2022-12-25T15:55:34.594Z,27.30
2022-12-25T15:58:01.049Z,27.35
2022-12-25T16:00:27.690Z,26.40
2022-12-25T16:02:54.358Z,21.42
2022-12-25T16:05:21.397Z,23.75
2022-12-25T16:07:48.781Z,22.97
2022-12-25T16:10:18.263Z,24.95
2022-12-25T16:12:45.846Z,25.95
2022-12-25T16:15:13.815Z,26.02
2022-12-25T16:17:40.452Z,26.98
2022-12-25T16:20:08.041Z,22.30
2022-12-25T16:22:34.516Z,21.92
2022-12-25T16:25:01.028Z,28.77
2022-12-25T16:27:27.499Z,25.20
2022-12-25T16:29:53.975Z,24.05
2022-12-25T16:32:20.470Z,23.93
2022-12-25T16:34:48.647Z,26.38
2022-12-25T16:37:15.253Z,27.98
2022-12-25T16:39:41.724Z,23.75
2022-12-25T16:42:08.146Z,24.17
2022-12-25T16:44:36.572Z,24.70
2022-12-25T16:47:03.118Z,22.45
2022-12-25T16:49:29.751Z,26.05
2022-12-25T16:51:56.212Z,25.85
2022-12-25T16:54:22.736Z,27.42
2022-12-25T16:56:49.212Z,25.07
2022-12-25T16:59:15.691Z,26.15
2022-12-25T17:01:42.208Z,28.40
2022-12-25T17:04:09.614Z,31.88
2022-12-25T17:06:36.389Z,34.25
2022-12-25T17:09:04.195Z,33.90
2022-12-25T17:11:31.891Z,33.25
2022-12-25T17:14:00.617Z,34.88
2022-12-25T17:16:29.470Z,35.22
2022-12-25T17:18:58.215Z,35.17
2022-12-25T17:21:25.444Z,40.63
2022-12-25T17:23:58.037Z,34.97
2022-12-25T17:26:28.171Z,31.42
2022-12-25T17:28:54.828Z,29.23
2022-12-25T17:31:21.339Z,29.02
2022-12-25T17:33:47.908Z,31.43
2022-12-25T17:36:17.554Z,33.55
2022-12-25T17:38:44.417Z,34.47
2022-12-25T17:41:13.964Z,30.42
2022-12-25T17:43:40.471Z,29.90
2022-12-25T17:46:09.050Z,28.80
2022-12-25T17:48:35.584Z,30.00
2022-12-25T17:51:14.002Z,26.08
2022-12-25T17:53:42.804Z,27.38
2022-12-25T17:56:10.516Z,27.00
2022-12-25T17:58:37.797Z,27.90
2022-12-25T18:01:08.687Z,28.75
2022-12-25T18:03:35.377Z,30.83
2022-12-25T18:06:03.711Z,31.42
2022-12-25T18:08:35.325Z,33.03
2022-12-25T18:11:07.653Z,34.10
2022-12-25T18:13:34.179Z,32.58
2022-12-25T18:16:05.581Z,34.50
2022-12-25T18:18:32.582Z,36.65
2022-12-25T18:20:59.549Z,37.17
2022-12-25T18:23:26.315Z,40.60
2022-12-25T18:25:52.803Z,32.63
2022-12-25T18:28:19.380Z,37.70
2022-12-25T18:30:47.134Z,33.22
2022-12-25T18:33:13.751Z,31.65
2022-12-25T18:35:42.653Z,29.97
2022-12-25T18:38:11.299Z,25.02
2022-12-25T18:40:46.131Z,28.73
2022-12-25T18:43:13.757Z,25.73
2022-12-25T18:45:40.702Z,26.75
2022-12-25T18:48:08.308Z,25.37
2022-12-25T18:50:40.080Z,23.85
2022-12-25T18:53:07.312Z,23.88
2022-12-25T18:55:33.818Z,26.00
2022-12-25T18:58:00.274Z,27.35
2022-12-25T19:00:26.752Z,27.20
2022-12-25T19:02:57.954Z,28.85
2022-12-25T19:05:24.907Z,30.75
2022-12-25T19:07:51.410Z,30.77
2022-12-25T19:10:17.936Z,31.00
2022-12-25T19:12:44.442Z,34.03
2022-12-25T19:15:11.161Z,32.25
2022-12-25T19:17:37.827Z,31.95
2022-12-25T19:20:04.901Z,32.85
2022-12-25T19:22:31.618Z,33.83
2022-12-25T19:24:58.432Z,29.83
2022-12-25T19:27:24.981Z,30.90
2022-12-25T19:29:51.499Z,30.40
2022-12-25T19:32:18.038Z,29.88
2022-12-25T19:34:44.575Z,30.52
2022-12-25T19:37:11.057Z,27.37
2022-12-25T19:39:37.886Z,29.73
2022-12-25T19:42:04.461Z,27.85
2022-12-25T19:44:30.978Z,27.88
2022-12-25T19:46:57.452Z,24.05
2022-12-25T19:49:23.912Z,34.03
2022-12-25T19:51:50.364Z,26.02
2022-12-25T19:54:17.213Z,27.13
2022-12-25T19:56:43.720Z,28.30
2022-12-25T19:59:12.087Z,26.95
2022-12-25T20:01:39.062Z,23.87
2022-12-25T20:04:09.898Z,24.00
2022-12-25T20:06:38.499Z,24.63
2022-12-25T20:09:11.223Z,21.15
2022-12-25T20:11:37.801Z,26.88
2022-12-25T20:14:05.928Z,25.40
2022-12-25T20:16:33.050Z,25.65
2022-12-25T20:18:59.578Z,25.65
2022-12-25T20:21:26.471Z,27.45
2022-12-25T20:23:53.853Z,28.77
2022-12-25T20:26:25.001Z,27.97
2022-12-25T20:28:52.183Z,26.55
2022-12-25T20:31:21.759Z,29.27
2022-12-25T20:33:48.359Z,29.35
2022-12-25T20:36:15.580Z,26.83
2022-12-25T20:38:42.410Z,26.47
2022-12-25T20:41:30.586Z,25.60
2022-12-25T20:43:57.746Z,23.00
2022-12-25T20:46:25.426Z,21.45
2022-12-25T20:48:52.090Z,20.58
2022-12-25T20:51:21.790Z,22.03
2022-12-25T20:53:49.002Z,23.55
2022-12-25T20:56:17.797Z,21.90
2022-12-25T20:58:44.436Z,20.05
2022-12-25T21:01:14.620Z,21.38
2022-12-25T21:03:41.898Z,19.43
2022-12-25T21:06:09.611Z,21.25
2022-12-25T21:08:36.719Z,17.20
2022-12-25T21:11:04.662Z,18.00
2022-12-25T21:13:34.565Z,16.00
2022-12-25T21:16:01.143Z,19.87
2022-12-25T21:18:28.215Z,17.15
2022-12-25T21:20:57.083Z,18.33
2022-12-25T21:23:24.956Z,18.67
2022-12-25T21:25:51.368Z,18.42
2022-12-25T21:28:18.055Z,15.80
2022-12-25T21:30:44.545Z,16.35
2022-12-25T21:33:16.691Z,16.20
2022-12-25T21:35:43.658Z,15.43
2022-12-25T21:38:10.153Z,16.58
2022-12-25T21:40:37.872Z,16.03
2022-12-25T21:43:04.624Z,14.70
2022-12-25T21:45:32.895Z,14.73
2022-12-25T21:48:03.325Z,14.32
2022-12-25T21:50:32.520Z,16.85
2022-12-25T21:53:02.489Z,15.20
2022-12-25T21:55:29.021Z,15.70
2022-12-25T21:57:55.576Z,17.73
2022-12-25T22:00:22.085Z,16.92
2022-12-25T22:02:49.526Z,17.98
2022-12-25T22:05:16.329Z,18.73
2022-12-25T22:07:42.823Z,19.65
2022-12-25T22:10:09.317Z,24.42
2022-12-25T22:12:35.817Z,25.20
2022-12-25T22:15:04.638Z,25.02
2022-12-25T22:17:34.349Z,24.37
2022-12-25T22:20:00.840Z,24.90
2022-12-25T22:22:29.847Z,25.52
2022-12-25T22:24:58.979Z,24.13
2022-12-25T22:27:29.328Z,24.85
2022-12-25T22:29:55.790Z,24.53
2022-12-25T22:32:22.317Z,23.17
2022-12-25T22:34:48.953Z,24.13
2022-12-25T22:37:17.855Z,23.20
2022-12-25T22:39:44.910Z,23.58
2022-12-25T22:42:12.270Z,21.57
2022-12-25T22:44:38.794Z,23.05
2022-12-25T22:47:05.462Z,21.10
2022-12-25T22:49:31.991Z,21.30
2022-12-25T22:51:58.587Z,21.85
2022-12-25T22:54:28.340Z,21.17
2022-12-25T22:56:54.900Z,20.77
2022-12-25T22:59:22.150Z,22.13
2022-12-25T23:01:49.944Z,20.95
2022-12-25T23:04:17.428Z,20.92
2022-12-25T23:06:44.211Z,21.43
2022-12-25T23:09:17.578Z,20.65
2022-12-25T23:11:48.987Z,22.30
2022-12-25T23:14:15.750Z,20.45
2022-12-25T23:16:42.273Z,21.33
2022-12-25T23:19:11.898Z,20.40
2022-12-25T23:21:39.329Z,19.02
2022-12-25T23:24:06.314Z,18.55
2022-12-25T23:26:32.834Z,18.20
2022-12-25T23:28:59.350Z,20.13
2022-12-25T23:31:29.569Z,18.87
2022-12-25T23:33:56.214Z,19.98
2022-12-25T23:36:22.790Z,19.88
2022-12-25T23:38:49.262Z,21.02
2022-12-25T23:41:16.135Z,19.45
2022-12-25T23:43:42.751Z,20.80
2022-12-25T23:46:09.329Z,20.58
2022-12-25T23:48:35.869Z,23.67
2022-12-25T23:51:03.881Z,20.63
2022-12-25T23:53:30.988Z,23.23
2022-12-25T23:55:57.693Z,21.60
2022-12-25T23:58:25.657Z,23.77
